sensor_id;sensor_type;location;lat;lon;timestamp;P1;durP1;ratioP1;P2;durP2;ratioP2
47349;SDS011;33088;51.982;5.872;2022-12-20T00:00:58;5.13;;;2.80;;
47349;SDS011;33088;51.982;5.872;2022-12-20T00:03:23;4.18;;;2.72;;
47349;SDS011;33088;51.982;5.872;2022-12-20T00:05:49;3.67;;;2.90;;
47349;SDS011;33088;51.982;5.872;2022-12-20T00:08:14;4.13;;;2.60;;
47349;SDS011;33088;51.982;5.872;2022-12-20T00:10:41;3.33;;;2.95;;
47349;SDS011;33088;51.982;5.872;2022-12-20T00:13:09;4.60;;;2.83;;
47349;SDS011;33088;51.982;5.872;2022-12-20T00:15:35;3.20;;;2.42;;
47349;SDS011;33088;51.982;5.872;2022-12-20T00:18:01;6.15;;;2.95;;
47349;SDS011;33088;51.982;5.872;2022-12-20T00:20:27;4.05;;;2.40;;
47349;SDS011;33088;51.982;5.872;2022-12-20T00:22:53;3.55;;;2.25;;
47349;SDS011;33088;51.982;5.872;2022-12-20T00:25:19;3.75;;;2.72;;
47349;SDS011;33088;51.982;5.872;2022-12-20T00:27:45;4.63;;;2.75;;
47349;SDS011;33088;51.982;5.872;2022-12-20T00:30:12;3.55;;;2.20;;
47349;SDS011;33088;51.982;5.872;2022-12-20T00:32:40;4.70;;;2.50;;
47349;SDS011;33088;51.982;5.872;2022-12-20T00:35:07;4.50;;;2.58;;
47349;SDS011;33088;51.982;5.872;2022-12-20T00:37:33;4.35;;;2.80;;
47349;SDS011;33088;51.982;5.872;2022-12-20T00:39:59;3.63;;;2.70;;
47349;SDS011;33088;51.982;5.872;2022-12-20T00:42:24;3.35;;;2.47;;
47349;SDS011;33088;51.982;5.872;2022-12-20T00:44:50;4.70;;;3.05;;
47349;SDS011;33088;51.982;5.872;2022-12-20T00:47:16;3.72;;;2.78;;
47349;SDS011;33088;51.982;5.872;2022-12-20T00:49:41;4.95;;;2.20;;
47349;SDS011;33088;51.982;5.872;2022-12-20T00:52:07;6.03;;;2.35;;
47349;SDS011;33088;51.982;5.872;2022-12-20T00:54:33;5.22;;;2.58;;
47349;SDS011;33088;51.982;5.872;2022-12-20T00:56:58;3.65;;;2.60;;
47349;SDS011;33088;51.982;5.872;2022-12-20T00:59:24;4.35;;;2.55;;
47349;SDS011;33088;51.982;5.872;2022-12-20T01:01:50;3.83;;;2.35;;
47349;SDS011;33088;51.982;5.872;2022-12-20T01:04:18;5.10;;;2.35;;
47349;SDS011;33088;51.982;5.872;2022-12-20T01:06:44;6.65;;;2.53;;
47349;SDS011;33088;51.982;5.872;2022-12-20T01:09:10;6.88;;;2.28;;
47349;SDS011;33088;51.982;5.872;2022-12-20T01:11:37;3.17;;;1.90;;
47349;SDS011;33088;51.982;5.872;2022-12-20T01:14:06;5.47;;;2.47;;
47349;SDS011;33088;51.982;5.872;2022-12-20T01:16:39;3.63;;;1.95;;
47349;SDS011;33088;51.982;5.872;2022-12-20T01:19:07;4.25;;;2.20;;
47349;SDS011;33088;51.982;5.872;2022-12-20T01:21:34;3.75;;;2.72;;
47349;SDS011;33088;51.982;5.872;2022-12-20T01:24:00;3.83;;;2.35;;
47349;SDS011;33088;51.982;5.872;2022-12-20T01:26:27;4.60;;;1.90;;
47349;SDS011;33088;51.982;5.872;2022-12-20T01:28:55;4.43;;;1.67;;
47349;SDS011;33088;51.982;5.872;2022-12-20T01:31:26;4.20;;;1.67;;
47349;SDS011;33088;51.982;5.872;2022-12-20T01:33:53;5.22;;;2.17;;
47349;SDS011;33088;51.982;5.872;2022-12-20T01:36:20;4.18;;;2.28;;
47349;SDS011;33088;51.982;5.872;2022-12-20T01:38:49;3.45;;;2.17;;
47349;SDS011;33088;51.982;5.872;2022-12-20T01:41:19;3.33;;;2.00;;
47349;SDS011;33088;51.982;5.872;2022-12-20T01:43:48;3.65;;;2.42;;
47349;SDS011;33088;51.982;5.872;2022-12-20T01:46:16;6.40;;;2.13;;
47349;SDS011;33088;51.982;5.872;2022-12-20T01:48:45;8.00;;;2.45;;
47349;SDS011;33088;51.982;5.872;2022-12-20T01:51:20;6.85;;;2.50;;
47349;SDS011;33088;51.982;5.872;2022-12-20T01:53:48;4.97;;;2.70;;
47349;SDS011;33088;51.982;5.872;2022-12-20T01:56:19;6.05;;;3.38;;
47349;SDS011;33088;51.982;5.872;2022-12-20T01:58:45;2.80;;;2.50;;
47349;SDS011;33088;51.982;5.872;2022-12-20T02:01:13;5.20;;;2.47;;
47349;SDS011;33088;51.982;5.872;2022-12-20T02:03:39;3.70;;;2.63;;
47349;SDS011;33088;51.982;5.872;2022-12-20T02:06:12;5.47;;;2.53;;
47349;SDS011;33088;51.982;5.872;2022-12-20T02:08:42;4.72;;;2.83;;
47349;SDS011;33088;51.982;5.872;2022-12-20T02:14:18;8.10;;;3.47;;
47349;SDS011;33088;51.982;5.872;2022-12-20T02:19:49;5.22;;;2.83;;
47349;SDS011;33088;51.982;5.872;2022-12-20T02:22:25;13.40;;;3.67;;
47349;SDS011;33088;51.982;5.872;2022-12-20T02:31:03;6.88;;;3.72;;
47349;SDS011;33088;51.982;5.872;2022-12-20T02:33:32;5.88;;;3.55;;
47349;SDS011;33088;51.982;5.872;2022-12-20T02:35:58;6.82;;;3.60;;
47349;SDS011;33088;51.982;5.872;2022-12-20T02:41:04;6.13;;;4.20;;
47349;SDS011;33088;51.982;5.872;2022-12-20T02:43:38;9.63;;;4.50;;
47349;SDS011;33088;51.982;5.872;2022-12-20T02:46:26;8.93;;;4.10;;
47349;SDS011;33088;51.982;5.872;2022-12-20T02:48:52;11.90;;;4.20;;
47349;SDS011;33088;51.982;5.872;2022-12-20T02:51:22;6.03;;;4.18;;
47349;SDS011;33088;51.982;5.872;2022-12-20T02:53:50;6.07;;;3.95;;
47349;SDS011;33088;51.982;5.872;2022-12-20T02:56:27;6.85;;;4.53;;
47349;SDS011;33088;51.982;5.872;2022-12-20T03:02:14;8.18;;;4.40;;
47349;SDS011;33088;51.982;5.872;2022-12-20T03:04:40;4.40;;;3.80;;
47349;SDS011;33088;51.982;5.872;2022-12-20T03:07:08;6.38;;;3.92;;
47349;SDS011;33088;51.982;5.872;2022-12-20T03:09:37;6.05;;;3.92;;
47349;SDS011;33088;51.982;5.872;2022-12-20T03:12:05;4.68;;;3.75;;
47349;SDS011;33088;51.982;5.872;2022-12-20T03:14:35;6.47;;;3.95;;
47349;SDS011;33088;51.982;5.872;2022-12-20T03:17:04;8.50;;;4.82;;
47349;SDS011;33088;51.982;5.872;2022-12-20T03:19:30;6.10;;;4.25;;
47349;SDS011;33088;51.982;5.872;2022-12-20T03:21:57;5.50;;;3.90;;
47349;SDS011;33088;51.982;5.872;2022-12-20T03:24:23;11.23;;;4.95;;
47349;SDS011;33088;51.982;5.872;2022-12-20T03:26:50;5.47;;;4.05;;
47349;SDS011;33088;51.982;5.872;2022-12-20T03:29:17;5.68;;;3.97;;
47349;SDS011;33088;51.982;5.872;2022-12-20T03:31:43;4.75;;;3.78;;
47349;SDS011;33088;51.982;5.872;2022-12-20T03:34:09;6.15;;;4.80;;
47349;SDS011;33088;51.982;5.872;2022-12-20T03:36:35;5.78;;;3.25;;
47349;SDS011;33088;51.982;5.872;2022-12-20T03:39:03;5.65;;;3.88;;
47349;SDS011;33088;51.982;5.872;2022-12-20T03:41:33;8.10;;;5.18;;
47349;SDS011;33088;51.982;5.872;2022-12-20T03:43:59;8.35;;;4.07;;
47349;SDS011;33088;51.982;5.872;2022-12-20T03:46:25;6.40;;;4.07;;
47349;SDS011;33088;51.982;5.872;2022-12-20T03:48:52;5.28;;;3.50;;
47349;SDS011;33088;51.982;5.872;2022-12-20T03:51:17;5.18;;;3.70;;
47349;SDS011;33088;51.982;5.872;2022-12-20T03:53:43;6.85;;;4.15;;
47349;SDS011;33088;51.982;5.872;2022-12-20T03:56:10;6.60;;;3.60;;
47349;SDS011;33088;51.982;5.872;2022-12-20T03:58:37;5.18;;;3.63;;
47349;SDS011;33088;51.982;5.872;2022-12-20T04:01:15;4.53;;;3.53;;
47349;SDS011;33088;51.982;5.872;2022-12-20T04:03:45;6.10;;;3.73;;
47349;SDS011;33088;51.982;5.872;2022-12-20T04:06:11;4.75;;;3.20;;
47349;SDS011;33088;51.982;5.872;2022-12-20T04:08:37;5.03;;;3.58;;
47349;SDS011;33088;51.982;5.872;2022-12-20T04:11:03;4.20;;;2.63;;
47349;SDS011;33088;51.982;5.872;2022-12-20T04:16:12;9.32;;;3.38;;
47349;SDS011;33088;51.982;5.872;2022-12-20T04:18:40;8.10;;;2.90;;
47349;SDS011;33088;51.982;5.872;2022-12-20T04:21:06;5.28;;;3.08;;
47349;SDS011;33088;51.982;5.872;2022-12-20T04:23:36;9.50;;;3.05;;
47349;SDS011;33088;51.982;5.872;2022-12-20T04:26:04;4.40;;;3.05;;
47349;SDS011;33088;51.982;5.872;2022-12-20T04:28:32;3.83;;;2.72;;
47349;SDS011;33088;51.982;5.872;2022-12-20T04:30:59;5.45;;;3.35;;
47349;SDS011;33088;51.982;5.872;2022-12-20T04:33:27;3.92;;;2.60;;
47349;SDS011;33088;51.982;5.872;2022-12-20T04:35:53;11.15;;;3.92;;
47349;SDS011;33088;51.982;5.872;2022-12-20T04:38:21;3.22;;;2.72;;
47349;SDS011;33088;51.982;5.872;2022-12-20T04:40:48;4.65;;;2.92;;
47349;SDS011;33088;51.982;5.872;2022-12-20T04:43:14;4.68;;;2.92;;
47349;SDS011;33088;51.982;5.872;2022-12-20T04:45:40;3.88;;;2.60;;
47349;SDS011;33088;51.982;5.872;2022-12-20T04:48:09;4.22;;;2.70;;
47349;SDS011;33088;51.982;5.872;2022-12-20T04:50:37;5.05;;;2.70;;
47349;SDS011;33088;51.982;5.872;2022-12-20T04:53:02;4.03;;;2.83;;
47349;SDS011;33088;51.982;5.872;2022-12-20T04:55:48;3.88;;;2.67;;
47349;SDS011;33088;51.982;5.872;2022-12-20T04:58:14;3.53;;;2.83;;
47349;SDS011;33088;51.982;5.872;2022-12-20T05:00:40;6.30;;;2.85;;
47349;SDS011;33088;51.982;5.872;2022-12-20T05:03:19;6.97;;;2.55;;
47349;SDS011;33088;51.982;5.872;2022-12-20T05:05:46;3.70;;;2.42;;
47349;SDS011;33088;51.982;5.872;2022-12-20T05:08:12;3.95;;;2.78;;
47349;SDS011;33088;51.982;5.872;2022-12-20T05:10:38;3.05;;;2.70;;
47349;SDS011;33088;51.982;5.872;2022-12-20T05:13:04;7.13;;;2.45;;
47349;SDS011;33088;51.982;5.872;2022-12-20T05:15:36;3.28;;;2.38;;
47349;SDS011;33088;51.982;5.872;2022-12-20T05:18:02;8.20;;;3.55;;
47349;SDS011;33088;51.982;5.872;2022-12-20T05:20:38;4.97;;;2.83;;
47349;SDS011;33088;51.982;5.872;2022-12-20T05:23:04;3.00;;;2.40;;
47349;SDS011;33088;51.982;5.872;2022-12-20T05:25:52;4.57;;;3.00;;
47349;SDS011;33088;51.982;5.872;2022-12-20T05:28:28;2.88;;;2.35;;
47349;SDS011;33088;51.982;5.872;2022-12-20T05:30:54;4.82;;;3.13;;
47349;SDS011;33088;51.982;5.872;2022-12-20T05:33:20;5.88;;;3.90;;
47349;SDS011;33088;51.982;5.872;2022-12-20T05:35:46;10.20;;;3.60;;
47349;SDS011;33088;51.982;5.872;2022-12-20T05:38:13;5.13;;;3.38;;
47349;SDS011;33088;51.982;5.872;2022-12-20T05:40:39;5.20;;;2.83;;
47349;SDS011;33088;51.982;5.872;2022-12-20T05:43:06;7.05;;;3.67;;
47349;SDS011;33088;51.982;5.872;2022-12-20T05:45:37;4.22;;;3.28;;
47349;SDS011;33088;51.982;5.872;2022-12-20T05:48:09;7.07;;;3.60;;
47349;SDS011;33088;51.982;5.872;2022-12-20T05:50:38;6.60;;;3.30;;
47349;SDS011;33088;51.982;5.872;2022-12-20T05:53:20;4.43;;;4.03;;
47349;SDS011;33088;51.982;5.872;2022-12-20T05:55:51;4.60;;;3.60;;
47349;SDS011;33088;51.982;5.872;2022-12-20T05:58:19;7.05;;;3.58;;
47349;SDS011;33088;51.982;5.872;2022-12-20T06:01:01;5.00;;;3.15;;
47349;SDS011;33088;51.982;5.872;2022-12-20T06:03:32;6.38;;;3.45;;
47349;SDS011;33088;51.982;5.872;2022-12-20T06:06:01;4.55;;;4.00;;
47349;SDS011;33088;51.982;5.872;2022-12-20T06:08:29;5.43;;;3.40;;
47349;SDS011;33088;51.982;5.872;2022-12-20T06:10:57;7.90;;;3.75;;
47349;SDS011;33088;51.982;5.872;2022-12-20T06:13:23;9.40;;;4.05;;
47349;SDS011;33088;51.982;5.872;2022-12-20T06:15:51;8.95;;;4.07;;
47349;SDS011;33088;51.982;5.872;2022-12-20T06:18:18;5.85;;;3.92;;
47349;SDS011;33088;51.982;5.872;2022-12-20T06:20:48;6.15;;;3.65;;
47349;SDS011;33088;51.982;5.872;2022-12-20T06:23:20;8.65;;;3.78;;
47349;SDS011;33088;51.982;5.872;2022-12-20T06:26:02;6.78;;;3.65;;
47349;SDS011;33088;51.982;5.872;2022-12-20T06:28:32;5.78;;;3.15;;
47349;SDS011;33088;51.982;5.872;2022-12-20T06:30:57;8.95;;;3.55;;
47349;SDS011;33088;51.982;5.872;2022-12-20T06:33:34;4.85;;;3.05;;
47349;SDS011;33088;51.982;5.872;2022-12-20T06:36:00;4.05;;;3.13;;
47349;SDS011;33088;51.982;5.872;2022-12-20T06:38:26;4.32;;;3.08;;
47349;SDS011;33088;51.982;5.872;2022-12-20T06:40:52;6.50;;;3.35;;
47349;SDS011;33088;51.982;5.872;2022-12-20T06:43:18;7.35;;;3.25;;
47349;SDS011;33088;51.982;5.872;2022-12-20T06:45:46;5.07;;;3.33;;
47349;SDS011;33088;51.982;5.872;2022-12-20T06:48:11;5.38;;;2.83;;
47349;SDS011;33088;51.982;5.872;2022-12-20T06:50:38;5.90;;;2.95;;
47349;SDS011;33088;51.982;5.872;2022-12-20T06:53:04;5.55;;;2.78;;
47349;SDS011;33088;51.982;5.872;2022-12-20T06:55:30;6.18;;;2.55;;
47349;SDS011;33088;51.982;5.872;2022-12-20T06:57:56;5.55;;;2.53;;
47349;SDS011;33088;51.982;5.872;2022-12-20T07:00:23;3.33;;;2.63;;
47349;SDS011;33088;51.982;5.872;2022-12-20T07:02:49;6.50;;;2.95;;
47349;SDS011;33088;51.982;5.872;2022-12-20T07:05:14;6.40;;;2.88;;
47349;SDS011;33088;51.982;5.872;2022-12-20T07:07:40;5.95;;;3.22;;
47349;SDS011;33088;51.982;5.872;2022-12-20T07:10:06;5.80;;;2.58;;
47349;SDS011;33088;51.982;5.872;2022-12-20T07:12:32;3.35;;;2.45;;
47349;SDS011;33088;51.982;5.872;2022-12-20T07:14:58;5.43;;;2.63;;
47349;SDS011;33088;51.982;5.872;2022-12-20T07:17:24;3.10;;;2.30;;
47349;SDS011;33088;51.982;5.872;2022-12-20T07:19:49;2.88;;;2.13;;
47349;SDS011;33088;51.982;5.872;2022-12-20T07:22:15;4.15;;;2.47;;
47349;SDS011;33088;51.982;5.872;2022-12-20T07:24:41;6.53;;;2.90;;
47349;SDS011;33088;51.982;5.872;2022-12-20T07:27:07;10.93;;;2.75;;
47349;SDS011;33088;51.982;5.872;2022-12-20T07:29:34;3.60;;;2.20;;
47349;SDS011;33088;51.982;5.872;2022-12-20T07:32:00;5.50;;;2.58;;
47349;SDS011;33088;51.982;5.872;2022-12-20T07:34:26;7.53;;;2.55;;
47349;SDS011;33088;51.982;5.872;2022-12-20T07:36:52;4.38;;;2.20;;
47349;SDS011;33088;51.982;5.872;2022-12-20T07:39:17;4.97;;;1.98;;
47349;SDS011;33088;51.982;5.872;2022-12-20T07:41:43;5.10;;;2.67;;
47349;SDS011;33088;51.982;5.872;2022-12-20T07:44:14;4.32;;;3.22;;
47349;SDS011;33088;51.982;5.872;2022-12-20T07:46:40;4.38;;;2.13;;
47349;SDS011;33088;51.982;5.872;2022-12-20T07:49:05;4.45;;;2.53;;
47349;SDS011;33088;51.982;5.872;2022-12-20T07:51:33;4.40;;;2.58;;
47349;SDS011;33088;51.982;5.872;2022-12-20T07:54:12;5.78;;;2.40;;
47349;SDS011;33088;51.982;5.872;2022-12-20T07:57:00;3.58;;;2.20;;
47349;SDS011;33088;51.982;5.872;2022-12-20T07:59:35;6.45;;;2.38;;
47349;SDS011;33088;51.982;5.872;2022-12-20T08:02:06;6.50;;;2.75;;
47349;SDS011;33088;51.982;5.872;2022-12-20T08:04:37;3.45;;;2.22;;
47349;SDS011;33088;51.982;5.872;2022-12-20T08:07:03;3.95;;;2.45;;
47349;SDS011;33088;51.982;5.872;2022-12-20T08:09:30;4.70;;;2.65;;
47349;SDS011;33088;51.982;5.872;2022-12-20T08:12:00;3.47;;;2.30;;
47349;SDS011;33088;51.982;5.872;2022-12-20T08:14:26;4.00;;;2.50;;
47349;SDS011;33088;51.982;5.872;2022-12-20T08:16:54;5.20;;;2.40;;
47349;SDS011;33088;51.982;5.872;2022-12-20T08:19:19;4.68;;;2.60;;
47349;SDS011;33088;51.982;5.872;2022-12-20T08:21:45;6.55;;;2.72;;
47349;SDS011;33088;51.982;5.872;2022-12-20T08:24:11;3.35;;;2.50;;
47349;SDS011;33088;51.982;5.872;2022-12-20T08:26:39;7.82;;;2.85;;
47349;SDS011;33088;51.982;5.872;2022-12-20T08:29:06;2.20;;;1.98;;
47349;SDS011;33088;51.982;5.872;2022-12-20T08:31:35;3.83;;;2.35;;
47349;SDS011;33088;51.982;5.872;2022-12-20T08:34:02;8.55;;;4.00;;
47349;SDS011;33088;51.982;5.872;2022-12-20T08:36:28;7.03;;;2.70;;
47349;SDS011;33088;51.982;5.872;2022-12-20T08:38:54;4.53;;;2.50;;
47349;SDS011;33088;51.982;5.872;2022-12-20T08:41:19;6.43;;;2.10;;
47349;SDS011;33088;51.982;5.872;2022-12-20T08:43:45;4.60;;;2.67;;
47349;SDS011;33088;51.982;5.872;2022-12-20T08:46:11;4.82;;;2.38;;
47349;SDS011;33088;51.982;5.872;2022-12-20T08:48:36;5.30;;;2.63;;
47349;SDS011;33088;51.982;5.872;2022-12-20T08:51:04;5.60;;;2.40;;
47349;SDS011;33088;51.982;5.872;2022-12-20T08:53:34;3.40;;;2.38;;
47349;SDS011;33088;51.982;5.872;2022-12-20T08:56:10;7.60;;;2.05;;
47349;SDS011;33088;51.982;5.872;2022-12-20T08:58:38;4.65;;;2.00;;
47349;SDS011;33088;51.982;5.872;2022-12-20T09:01:05;6.07;;;2.33;;
47349;SDS011;33088;51.982;5.872;2022-12-20T09:03:34;3.85;;;1.90;;
47349;SDS011;33088;51.982;5.872;2022-12-20T09:06:03;3.85;;;2.22;;
47349;SDS011;33088;51.982;5.872;2022-12-20T09:08:31;3.55;;;2.10;;
47349;SDS011;33088;51.982;5.872;2022-12-20T09:13:31;7.45;;;2.50;;
47349;SDS011;33088;51.982;5.872;2022-12-20T09:15:58;5.65;;;2.30;;
47349;SDS011;33088;51.982;5.872;2022-12-20T09:18:25;4.50;;;2.30;;
47349;SDS011;33088;51.982;5.872;2022-12-20T09:20:51;3.20;;;2.50;;
47349;SDS011;33088;51.982;5.872;2022-12-20T09:23:17;5.55;;;2.58;;
47349;SDS011;33088;51.982;5.872;2022-12-20T09:25:42;4.85;;;2.35;;
47349;SDS011;33088;51.982;5.872;2022-12-20T09:28:08;8.25;;;2.88;;
47349;SDS011;33088;51.982;5.872;2022-12-20T09:30:33;4.05;;;2.72;;
47349;SDS011;33088;51.982;5.872;2022-12-20T09:32:59;4.22;;;3.03;;
47349;SDS011;33088;51.982;5.872;2022-12-20T09:35:25;7.00;;;3.13;;
47349;SDS011;33088;51.982;5.872;2022-12-20T09:37:51;8.75;;;2.83;;
47349;SDS011;33088;51.982;5.872;2022-12-20T09:40:20;7.88;;;2.63;;
47349;SDS011;33088;51.982;5.872;2022-12-20T09:42:48;5.23;;;2.97;;
47349;SDS011;33088;51.982;5.872;2022-12-20T09:45:27;4.15;;;2.67;;
47349;SDS011;33088;51.982;5.872;2022-12-20T09:47:56;5.83;;;3.13;;
47349;SDS011;33088;51.982;5.872;2022-12-20T09:50:27;7.28;;;2.90;;
47349;SDS011;33088;51.982;5.872;2022-12-20T09:55:59;7.20;;;2.60;;
47349;SDS011;33088;51.982;5.872;2022-12-20T10:01:19;4.10;;;2.63;;
47349;SDS011;33088;51.982;5.872;2022-12-20T10:03:46;4.13;;;2.28;;
47349;SDS011;33088;51.982;5.872;2022-12-20T10:09:04;7.43;;;2.78;;
47349;SDS011;33088;51.982;5.872;2022-12-20T10:11:43;5.47;;;2.85;;
47349;SDS011;33088;51.982;5.872;2022-12-20T10:14:43;6.00;;;2.92;;
47349;SDS011;33088;51.982;5.872;2022-12-20T10:25:23;5.78;;;2.90;;
47349;SDS011;33088;51.982;5.872;2022-12-20T10:27:55;7.50;;;3.28;;
47349;SDS011;33088;51.982;5.872;2022-12-20T10:30:22;9.07;;;3.40;;
47349;SDS011;33088;51.982;5.872;2022-12-20T10:32:50;11.02;;;2.85;;
47349;SDS011;33088;51.982;5.872;2022-12-20T10:35:24;7.15;;;3.72;;
47349;SDS011;33088;51.982;5.872;2022-12-20T10:40:28;4.47;;;3.20;;
47349;SDS011;33088;51.982;5.872;2022-12-20T10:42:58;5.72;;;3.22;;
47349;SDS011;33088;51.982;5.872;2022-12-20T10:45:33;9.63;;;4.85;;
47349;SDS011;33088;51.982;5.872;2022-12-20T10:48:05;6.47;;;3.60;;
47349;SDS011;33088;51.982;5.872;2022-12-20T10:51:01;10.40;;;3.50;;
47349;SDS011;33088;51.982;5.872;2022-12-20T10:53:34;5.53;;;2.65;;
47349;SDS011;33088;51.982;5.872;2022-12-20T10:56:16;7.05;;;3.53;;
47349;SDS011;33088;51.982;5.872;2022-12-20T10:58:59;5.55;;;3.42;;
47349;SDS011;33088;51.982;5.872;2022-12-20T11:01:34;6.43;;;3.25;;
47349;SDS011;33088;51.982;5.872;2022-12-20T11:04:05;4.53;;;3.45;;
47349;SDS011;33088;51.982;5.872;2022-12-20T11:06:46;5.82;;;3.80;;
47349;SDS011;33088;51.982;5.872;2022-12-20T11:14:28;10.02;;;4.30;;
47349;SDS011;33088;51.982;5.872;2022-12-20T11:16:55;8.20;;;3.88;;
47349;SDS011;33088;51.982;5.872;2022-12-20T11:22:17;9.85;;;3.88;;
47349;SDS011;33088;51.982;5.872;2022-12-20T11:32:34;6.73;;;3.97;;
47349;SDS011;33088;51.982;5.872;2022-12-20T11:35:11;8.80;;;4.00;;
47349;SDS011;33088;51.982;5.872;2022-12-20T11:40:31;4.65;;;3.03;;
47349;SDS011;33088;51.982;5.872;2022-12-20T11:46:03;11.60;;;4.90;;
47349;SDS011;33088;51.982;5.872;2022-12-20T11:51:46;4.95;;;3.55;;
47349;SDS011;33088;51.982;5.872;2022-12-20T11:54:35;8.20;;;3.67;;
47349;SDS011;33088;51.982;5.872;2022-12-20T11:57:12;8.68;;;4.03;;
47349;SDS011;33088;51.982;5.872;2022-12-20T11:59:51;5.45;;;3.80;;
47349;SDS011;33088;51.982;5.872;2022-12-20T12:02:22;7.75;;;3.83;;
47349;SDS011;33088;51.982;5.872;2022-12-20T12:04:58;11.43;;;4.00;;
47349;SDS011;33088;51.982;5.872;2022-12-20T12:07:34;10.02;;;4.22;;
47349;SDS011;33088;51.982;5.872;2022-12-20T12:10:13;10.25;;;4.53;;
47349;SDS011;33088;51.982;5.872;2022-12-20T12:12:43;8.43;;;3.78;;
47349;SDS011;33088;51.982;5.872;2022-12-20T12:15:30;10.48;;;4.43;;
47349;SDS011;33088;51.982;5.872;2022-12-20T12:18:17;4.28;;;3.55;;
47349;SDS011;33088;51.982;5.872;2022-12-20T12:26:24;5.85;;;3.75;;
47349;SDS011;33088;51.982;5.872;2022-12-20T12:28:54;4.22;;;3.45;;
47349;SDS011;33088;51.982;5.872;2022-12-20T12:31:31;10.38;;;4.30;;
47349;SDS011;33088;51.982;5.872;2022-12-20T12:36:50;8.63;;;4.45;;
47349;SDS011;33088;51.982;5.872;2022-12-20T12:39:28;8.48;;;3.83;;
47349;SDS011;33088;51.982;5.872;2022-12-20T12:45:13;9.27;;;4.45;;
47349;SDS011;33088;51.982;5.872;2022-12-20T12:47:53;6.30;;;3.95;;
47349;SDS011;33088;51.982;5.872;2022-12-20T12:50:27;12.88;;;4.72;;
47349;SDS011;33088;51.982;5.872;2022-12-20T12:55:34;9.60;;;4.45;;
47349;SDS011;33088;51.982;5.872;2022-12-20T12:58:29;7.68;;;4.85;;
47349;SDS011;33088;51.982;5.872;2022-12-20T13:00:57;10.48;;;4.93;;
47349;SDS011;33088;51.982;5.872;2022-12-20T13:03:38;5.90;;;4.57;;
47349;SDS011;33088;51.982;5.872;2022-12-20T13:08:48;10.10;;;5.15;;
47349;SDS011;33088;51.982;5.872;2022-12-20T13:11:30;7.20;;;4.40;;
47349;SDS011;33088;51.982;5.872;2022-12-20T13:16:41;7.90;;;5.47;;
47349;SDS011;33088;51.982;5.872;2022-12-20T13:19:12;5.78;;;4.47;;
47349;SDS011;33088;51.982;5.872;2022-12-20T13:21:40;10.17;;;4.67;;
47349;SDS011;33088;51.982;5.872;2022-12-20T13:24:36;11.38;;;5.35;;
47349;SDS011;33088;51.982;5.872;2022-12-20T13:27:22;4.88;;;4.32;;
47349;SDS011;33088;51.982;5.872;2022-12-20T13:40:32;7.10;;;4.60;;
47349;SDS011;33088;51.982;5.872;2022-12-20T13:43:45;7.43;;;5.07;;
47349;SDS011;33088;51.982;5.872;2022-12-20T13:48:30;8.30;;;5.38;;
47349;SDS011;33088;51.982;5.872;2022-12-20T13:51:19;11.93;;;6.20;;
47349;SDS011;33088;51.982;5.872;2022-12-20T13:53:53;17.00;;;6.60;;
47349;SDS011;33088;51.982;5.872;2022-12-20T13:59:13;11.90;;;5.70;;
47349;SDS011;33088;51.982;5.872;2022-12-20T14:01:59;8.35;;;6.07;;
47349;SDS011;33088;51.982;5.872;2022-12-20T14:04:38;8.93;;;5.40;;
47349;SDS011;33088;51.982;5.872;2022-12-20T14:07:07;9.13;;;6.70;;
47349;SDS011;33088;51.982;5.872;2022-12-20T14:09:38;10.02;;;6.35;;
47349;SDS011;33088;51.982;5.872;2022-12-20T14:12:05;11.75;;;6.93;;
47349;SDS011;33088;51.982;5.872;2022-12-20T14:14:42;7.07;;;6.00;;
47349;SDS011;33088;51.982;5.872;2022-12-20T14:17:25;9.20;;;6.60;;
47349;SDS011;33088;51.982;5.872;2022-12-20T14:22:45;16.20;;;7.03;;
47349;SDS011;33088;51.982;5.872;2022-12-20T14:25:30;8.50;;;6.70;;
47349;SDS011;33088;51.982;5.872;2022-12-20T14:28:00;8.68;;;6.72;;
47349;SDS011;33088;51.982;5.872;2022-12-20T14:30:31;9.55;;;6.95;;
47349;SDS011;33088;51.982;5.872;2022-12-20T14:33:00;7.60;;;5.93;;
47349;SDS011;33088;51.982;5.872;2022-12-20T14:35:26;7.85;;;5.50;;
47349;SDS011;33088;51.982;5.872;2022-12-20T14:37:54;10.75;;;7.55;;
47349;SDS011;33088;51.982;5.872;2022-12-20T14:40:25;7.43;;;5.10;;
47349;SDS011;33088;51.982;5.872;2022-12-20T14:42:51;8.52;;;5.75;;
47349;SDS011;33088;51.982;5.872;2022-12-20T14:45:19;7.68;;;6.80;;
47349;SDS011;33088;51.982;5.872;2022-12-20T14:47:47;12.80;;;6.43;;
47349;SDS011;33088;51.982;5.872;2022-12-20T14:50:27;8.25;;;6.30;;
47349;SDS011;33088;51.982;5.872;2022-12-20T14:52:55;9.90;;;6.43;;
47349;SDS011;33088;51.982;5.872;2022-12-20T14:55:22;8.32;;;6.30;;
47349;SDS011;33088;51.982;5.872;2022-12-20T14:57:55;9.13;;;6.63;;
47349;SDS011;33088;51.982;5.872;2022-12-20T15:10:53;11.23;;;6.13;;
47349;SDS011;33088;51.982;5.872;2022-12-20T15:13:21;8.60;;;6.00;;
47349;SDS011;33088;51.982;5.872;2022-12-20T15:16:01;7.97;;;6.28;;
47349;SDS011;33088;51.982;5.872;2022-12-20T15:18:28;7.60;;;5.95;;
47349;SDS011;33088;51.982;5.872;2022-12-20T15:21:11;6.53;;;5.80;;
47349;SDS011;33088;51.982;5.872;2022-12-20T15:23:47;7.28;;;5.97;;
47349;SDS011;33088;51.982;5.872;2022-12-20T15:26:18;10.35;;;6.82;;
47349;SDS011;33088;51.982;5.872;2022-12-20T15:28:46;8.38;;;6.00;;
47349;SDS011;33088;51.982;5.872;2022-12-20T15:31:12;6.47;;;5.88;;
47349;SDS011;33088;51.982;5.872;2022-12-20T15:33:40;6.63;;;5.53;;
47349;SDS011;33088;51.982;5.872;2022-12-20T15:36:12;8.50;;;7.10;;
47349;SDS011;33088;51.982;5.872;2022-12-20T15:38:46;10.13;;;6.15;;
47349;SDS011;33088;51.982;5.872;2022-12-20T15:41:16;6.50;;;5.20;;
47349;SDS011;33088;51.982;5.872;2022-12-20T15:43:51;10.02;;;7.38;;
47349;SDS011;33088;51.982;5.872;2022-12-20T15:46:20;7.78;;;6.03;;
47349;SDS011;33088;51.982;5.872;2022-12-20T15:48:46;7.18;;;6.30;;
47349;SDS011;33088;51.982;5.872;2022-12-20T15:51:16;9.55;;;7.35;;
47349;SDS011;33088;51.982;5.872;2022-12-20T15:53:47;8.32;;;7.13;;
47349;SDS011;33088;51.982;5.872;2022-12-20T15:56:17;8.23;;;7.43;;
47349;SDS011;33088;51.982;5.872;2022-12-20T15:58:44;9.55;;;7.70;;
47349;SDS011;33088;51.982;5.872;2022-12-20T16:01:12;7.10;;;5.95;;
47349;SDS011;33088;51.982;5.872;2022-12-20T16:03:42;11.50;;;7.32;;
47349;SDS011;33088;51.982;5.872;2022-12-20T16:06:09;10.48;;;7.93;;
47349;SDS011;33088;51.982;5.872;2022-12-20T16:08:37;8.98;;;6.93;;
47349;SDS011;33088;51.982;5.872;2022-12-20T16:11:04;12.50;;;8.70;;
47349;SDS011;33088;51.982;5.872;2022-12-20T16:13:31;9.20;;;7.78;;
47349;SDS011;33088;51.982;5.872;2022-12-20T16:15:57;10.93;;;8.05;;
47349;SDS011;33088;51.982;5.872;2022-12-20T16:18:24;9.25;;;8.35;;
47349;SDS011;33088;51.982;5.872;2022-12-20T16:20:50;9.35;;;8.27;;
47349;SDS011;33088;51.982;5.872;2022-12-20T16:23:17;10.23;;;7.97;;
47349;SDS011;33088;51.982;5.872;2022-12-20T16:25:46;12.85;;;10.10;;
47349;SDS011;33088;51.982;5.872;2022-12-20T16:28:13;12.15;;;10.15;;
47349;SDS011;33088;51.982;5.872;2022-12-20T16:30:39;11.95;;;9.55;;
47349;SDS011;33088;51.982;5.872;2022-12-20T16:33:05;10.88;;;9.27;;
47349;SDS011;33088;51.982;5.872;2022-12-20T16:35:34;15.73;;;12.05;;
47349;SDS011;33088;51.982;5.872;2022-12-20T16:38:03;13.68;;;9.25;;
47349;SDS011;33088;51.982;5.872;2022-12-20T16:40:30;12.20;;;9.43;;
47349;SDS011;33088;51.982;5.872;2022-12-20T16:42:57;11.75;;;9.95;;
47349;SDS011;33088;51.982;5.872;2022-12-20T16:45:28;15.07;;;11.10;;
47349;SDS011;33088;51.982;5.872;2022-12-20T16:47:54;10.68;;;8.77;;
47349;SDS011;33088;51.982;5.872;2022-12-20T16:50:21;16.42;;;11.02;;
47349;SDS011;33088;51.982;5.872;2022-12-20T16:52:48;13.15;;;9.98;;
47349;SDS011;33088;51.982;5.872;2022-12-20T16:55:24;21.45;;;14.90;;
47349;SDS011;33088;51.982;5.872;2022-12-20T16:57:51;14.07;;;10.20;;